createdAt,value
2019-03-05T00:01:46.921Z,67.10
2019-03-05T00:04:16.318Z,66.72
2019-03-05T00:06:45.753Z,66.67
2019-03-05T00:09:16.793Z,66.45
2019-03-05T00:11:46.166Z,66.15
2019-03-05T00:14:18.701Z,66.18
2019-03-05T00:16:47.716Z,65.91
2019-03-05T00:19:17.121Z,65.87
2019-03-05T00:21:46.652Z,66.26
2019-03-05T00:24:52.091Z,65.92
2019-03-05T00:27:21.514Z,65.72
2019-03-05T00:30:10.588Z,65.83
2019-03-05T00:32:40.014Z,65.19
2019-03-05T00:35:18.798Z,65.44
2019-03-05T00:37:51.481Z,65.65
2019-03-05T00:40:26.926Z,65.62
2019-03-05T00:43:05.302Z,65.61
2019-03-05T00:45:37.889Z,65.70
2019-03-05T00:48:16.553Z,65.77
2019-03-05T00:50:51.652Z,65.81
2019-03-05T00:53:29.454Z,65.93
2019-03-05T00:56:20.250Z,66.00
2019-03-05T00:58:58.724Z,66.28
2019-03-05T01:01:31.315Z,66.41
2019-03-05T01:04:04.018Z,66.32
2019-03-05T01:06:33.350Z,66.34
2019-03-05T01:09:02.709Z,66.46
2019-03-05T01:11:32.378Z,66.68
2019-03-05T01:14:02.365Z,66.76
2019-03-05T01:16:33.358Z,66.66
2019-03-05T01:19:03.027Z,66.82
2019-03-05T01:21:32.386Z,67.19
2019-03-05T01:24:02.381Z,67.09
2019-03-05T01:26:32.241Z,67.04
2019-03-05T01:29:02.129Z,67.01
2019-03-05T01:31:39.068Z,67.02
2019-03-05T01:34:15.784Z,67.41
2019-03-05T01:36:46.783Z,67.11
2019-03-05T01:39:23.486Z,66.70
2019-03-05T01:41:52.845Z,66.45
2019-03-05T01:44:22.214Z,66.24
2019-03-05T01:46:51.589Z,66.26
2019-03-05T01:49:20.995Z,66.02
2019-03-05T01:51:50.424Z,65.74
2019-03-05T01:54:19.759Z,65.42
2019-03-05T01:56:49.148Z,65.18
2019-03-05T01:59:18.455Z,64.97
2019-03-05T02:01:47.814Z,65.03
2019-03-05T02:04:17.214Z,64.72
2019-03-05T02:06:46.582Z,64.64
2019-03-05T02:09:15.992Z,64.74
2019-03-05T02:11:45.349Z,64.81
2019-03-05T02:14:14.688Z,64.90
2019-03-05T02:16:44.051Z,64.73
2019-03-05T02:19:35.236Z,64.62
2019-03-05T02:22:06.896Z,64.88
2019-03-05T02:24:57.099Z,64.74
2019-03-05T02:27:38.229Z,64.85
2019-03-05T02:30:25.634Z,65.00
2019-03-05T02:33:23.507Z,65.12
2019-03-05T02:35:58.495Z,64.79
2019-03-05T02:38:39.935Z,64.81
2019-03-05T02:41:27.625Z,64.98
2019-03-05T02:44:08.657Z,64.97
2019-03-05T02:46:50.305Z,65.33
2019-03-05T02:49:34.572Z,64.95
2019-03-05T02:52:07.161Z,64.87
2019-03-05T02:55:14.108Z,64.75
2019-03-05T02:57:42.546Z,64.47
2019-03-05T03:00:13.549Z,64.82
2019-03-05T03:02:44.521Z,64.57
2019-03-05T03:05:15.523Z,64.83
2019-03-05T03:07:44.865Z,64.88
2019-03-05T03:10:17.570Z,65.15
2019-03-05T03:12:46.878Z,65.28
2019-03-05T03:15:16.305Z,64.81
2019-03-05T03:17:45.642Z,64.86
2019-03-05T03:20:15.741Z,64.75
2019-03-05T03:22:45.076Z,64.37
2019-03-05T03:25:16.277Z,64.25
2019-03-05T03:27:45.589Z,64.26
2019-03-05T03:30:16.613Z,64.24
2019-03-05T03:32:46.009Z,64.13
2019-03-05T03:35:15.742Z,64.22
2019-03-05T03:37:45.141Z,64.27
2019-03-05T03:40:18.708Z,64.28
2019-03-05T03:42:48.058Z,64.34
2019-03-05T03:45:19.019Z,64.55
2019-03-05T03:47:48.423Z,64.73
2019-03-05T03:50:17.883Z,65.06
2019-03-05T03:52:47.202Z,65.03
2019-03-05T03:55:16.551Z,65.21
2019-03-05T03:57:45.891Z,65.58
2019-03-05T04:00:22.392Z,65.75
2019-03-05T04:02:51.797Z,66.25
2019-03-05T04:05:21.150Z,66.50
2019-03-05T04:07:50.560Z,66.78
2019-03-05T04:10:19.917Z,66.98
2019-03-05T04:12:49.252Z,67.26
2019-03-05T04:15:19.342Z,67.50
2019-03-05T04:17:48.677Z,67.72
2019-03-05T04:20:19.687Z,67.79
2019-03-05T04:22:49.091Z,67.87
2019-03-05T04:25:18.454Z,68.03
2019-03-05T04:27:47.813Z,68.15
2019-03-05T04:30:17.218Z,68.17
2019-03-05T04:32:46.650Z,68.32
2019-03-05T04:35:15.982Z,68.34
2019-03-05T04:37:45.415Z,68.53
2019-03-05T04:40:14.817Z,68.48
2019-03-05T04:42:44.173Z,68.64
2019-03-05T04:45:34.130Z,68.45
2019-03-05T04:48:03.491Z,68.40
2019-03-05T04:50:37.693Z,68.20
2019-03-05T04:53:07.238Z,68.13
2019-03-05T04:55:36.565Z,68.20
2019-03-05T04:58:05.922Z,67.95
2019-03-05T05:00:35.261Z,68.01
2019-03-05T05:03:04.614Z,68.08
2019-03-05T05:05:33.951Z,68.13
2019-03-05T05:08:03.332Z,68.19
2019-03-05T05:10:33.122Z,68.41
2019-03-05T05:13:02.555Z,68.38
2019-03-05T05:15:34.287Z,68.54
2019-03-05T05:18:03.730Z,68.54
2019-03-05T05:20:33.455Z,68.39
2019-03-05T05:23:02.820Z,68.50
2019-03-05T05:25:32.155Z,68.49
2019-03-05T05:28:01.510Z,68.24
2019-03-05T05:30:33.040Z,67.78
2019-03-05T05:33:02.467Z,67.63
2019-03-05T05:35:31.873Z,67.52
2019-03-05T05:38:01.306Z,67.64
2019-03-05T05:40:38.063Z,67.20
2019-03-05T05:43:10.166Z,67.32
2019-03-05T05:45:49.569Z,67.15
2019-03-05T05:48:18.943Z,66.93
2019-03-05T05:50:48.277Z,66.82
2019-03-05T05:53:17.693Z,66.89
2019-03-05T05:55:47.029Z,66.64
2019-03-05T05:58:16.461Z,66.79
2019-03-05T06:00:47.435Z,66.74
2019-03-05T06:03:16.795Z,66.39
2019-03-05T06:05:46.197Z,66.39
2019-03-05T06:08:15.568Z,66.46
2019-03-05T06:10:45.092Z,66.43
2019-03-05T06:13:14.534Z,66.55
2019-03-05T06:15:43.911Z,66.24
2019-03-05T06:18:13.488Z,66.20
2019-03-05T06:20:42.928Z,66.49
2019-03-05T06:23:12.381Z,66.55
2019-03-05T06:25:41.782Z,66.44
2019-03-05T06:28:11.137Z,66.52
2019-03-05T06:30:41.805Z,66.41
2019-03-05T06:33:11.285Z,66.47
2019-03-05T06:35:40.616Z,66.41
2019-03-05T06:38:09.988Z,66.31
2019-03-05T06:40:39.316Z,66.05
2019-03-05T06:43:08.682Z,65.87
2019-03-05T06:45:38.018Z,66.01
2019-03-05T06:48:07.713Z,65.77
2019-03-05T06:50:37.045Z,65.95
2019-03-05T06:53:06.413Z,65.66
2019-03-05T06:55:35.814Z,65.84
2019-03-05T06:58:05.694Z,66.15
2019-03-05T07:00:38.676Z,66.15
2019-03-05T07:03:09.092Z,66.38
2019-03-05T07:06:14.586Z,66.67
2019-03-05T07:08:50.149Z,66.66
2019-03-05T07:11:25.632Z,66.85
2019-03-05T07:14:01.001Z,66.97
2019-03-05T07:16:33.778Z,67.24
2019-03-05T07:19:03.779Z,67.47
2019-03-05T07:21:54.190Z,67.37
2019-03-05T07:24:46.345Z,67.56
2019-03-05T07:27:18.221Z,67.81
2019-03-05T07:29:47.611Z,68.18
2019-03-05T07:32:16.936Z,68.16
2019-03-05T07:34:48.013Z,68.67
2019-03-05T07:37:17.341Z,68.91
2019-03-05T07:39:46.708Z,69.25
2019-03-05T07:42:16.048Z,69.42
2019-03-05T07:44:45.410Z,69.75
2019-03-05T07:47:14.741Z,70.03
2019-03-05T07:49:44.458Z,70.13
2019-03-05T07:52:13.825Z,70.59
2019-03-05T07:54:43.185Z,70.19
2019-03-05T07:57:12.546Z,70.49
2019-03-05T07:59:41.878Z,70.60
2019-03-05T08:02:11.257Z,70.75
2019-03-05T08:04:40.603Z,70.60
2019-03-05T08:07:10.056Z,70.82
2019-03-05T08:09:39.386Z,70.54
2019-03-05T08:12:18.097Z,70.85
2019-03-05T08:14:53.230Z,70.64
2019-03-05T08:17:23.383Z,70.47
2019-03-05T08:19:52.901Z,70.38
2019-03-05T08:22:22.438Z,70.15
2019-03-05T08:24:52.063Z,70.32
2019-03-05T08:27:21.445Z,69.92
2019-03-05T08:29:50.768Z,69.96
2019-03-05T08:32:20.243Z,69.78
2019-03-05T08:34:50.797Z,69.74
2019-03-05T08:37:20.157Z,69.83
2019-03-05T08:39:49.493Z,69.80
2019-03-05T08:42:18.865Z,69.95
2019-03-05T08:44:50.730Z,70.26
2019-03-05T08:47:19.326Z,70.49
2019-03-05T08:49:48.659Z,70.09
2019-03-05T08:52:18.019Z,69.82
2019-03-05T08:54:47.345Z,68.81
2019-03-05T08:57:16.800Z,68.74
2019-03-05T08:59:46.138Z,68.07
2019-03-05T09:02:15.513Z,68.00
2019-03-05T09:04:44.849Z,67.70
2019-03-05T09:07:14.211Z,67.74
2019-03-05T09:09:43.549Z,66.74
2019-03-05T09:12:12.911Z,66.67
2019-03-05T09:14:42.237Z,66.29
2019-03-05T09:17:11.626Z,64.61
2019-03-05T09:19:40.961Z,64.29
2019-03-05T09:22:10.331Z,63.77
2019-03-05T09:24:39.702Z,61.74
2019-03-05T09:27:09.028Z,60.95
2019-03-05T09:29:38.605Z,60.15
2019-03-05T09:32:07.933Z,60.52
2019-03-05T09:34:37.294Z,61.05
2019-03-05T09:37:06.630Z,60.23
2019-03-05T09:39:36.020Z,57.63
2019-03-05T09:42:05.426Z,57.96
2019-03-05T09:44:34.797Z,56.49
2019-03-05T09:47:04.649Z,56.51
2019-03-05T09:49:35.122Z,55.67
2019-03-05T09:52:04.526Z,56.83
2019-03-05T09:54:33.887Z,57.39
2019-03-05T09:57:03.223Z,58.12
2019-03-05T09:59:32.661Z,58.77
2019-03-05T10:02:01.994Z,59.34
2019-03-05T10:04:31.913Z,57.76
2019-03-05T10:07:01.321Z,58.17
2019-03-05T10:09:30.749Z,57.36
2019-03-05T10:12:00.077Z,56.97
2019-03-05T10:14:29.435Z,56.93
2019-03-05T10:16:58.765Z,57.17
2019-03-05T10:19:28.201Z,57.02
2019-03-05T10:21:57.602Z,56.60
2019-03-05T10:24:26.953Z,56.08
2019-03-05T10:26:56.457Z,54.78
2019-03-05T10:29:25.877Z,55.18
2019-03-05T10:31:55.284Z,55.30
2019-03-05T10:34:25.010Z,55.76
2019-03-05T10:36:54.417Z,55.52
2019-03-05T10:39:30.443Z,55.90
2019-03-05T10:41:56.243Z,56.13
2019-03-05T10:44:25.599Z,56.09
2019-03-05T10:46:56.124Z,56.08
2019-03-05T10:49:25.678Z,56.10
2019-03-05T10:51:55.084Z,55.64
2019-03-05T10:54:24.443Z,55.35
2019-03-05T10:56:53.846Z,54.92
2019-03-05T10:59:23.210Z,54.68
2019-03-05T11:01:52.687Z,53.92
2019-03-05T11:04:22.116Z,53.45
2019-03-05T11:06:51.522Z,52.73
2019-03-05T11:09:20.878Z,51.88
2019-03-05T11:11:51.721Z,52.00
2019-03-05T11:14:21.082Z,51.57
2019-03-05T11:16:50.420Z,51.83
2019-03-05T11:19:19.780Z,50.42
2019-03-05T11:21:49.123Z,50.27
2019-03-05T11:24:18.555Z,47.84
2019-03-05T11:26:47.901Z,46.24
2019-03-05T11:29:17.272Z,44.86
2019-03-05T11:31:46.609Z,44.38
2019-03-05T11:34:16.047Z,42.89
2019-03-05T11:36:45.394Z,43.06
2019-03-05T11:39:14.760Z,42.48
2019-03-05T11:41:44.181Z,41.70
2019-03-05T11:44:13.575Z,41.80
2019-03-05T11:46:42.927Z,41.12
2019-03-05T11:49:12.316Z,40.48
2019-03-05T11:51:41.650Z,36.32
2019-03-05T11:54:11.016Z,35.96
2019-03-05T11:56:40.384Z,37.95
2019-03-05T11:59:09.746Z,40.12
2019-03-05T12:01:39.286Z,39.84
2019-03-05T12:04:08.630Z,39.51
2019-03-05T12:06:37.995Z,38.27
2019-03-05T12:09:07.339Z,40.53
2019-03-05T12:11:37.106Z,42.91
2019-03-05T12:14:06.523Z,42.76
2019-03-05T12:16:36.227Z,44.17
2019-03-05T12:19:05.640Z,44.07
2019-03-05T12:21:35.422Z,40.74
2019-03-05T12:24:05.106Z,38.25
2019-03-05T12:26:34.474Z,40.67
2019-03-05T12:29:03.810Z,40.25
2019-03-05T12:31:33.173Z,42.09
2019-03-05T12:34:02.516Z,44.01
2019-03-05T12:36:31.886Z,46.19
2019-03-05T12:39:01.244Z,47.58
2019-03-05T12:41:30.916Z,47.90
2019-03-05T12:44:00.324Z,49.22
2019-03-05T12:46:29.683Z,50.16
2019-03-05T12:48:59.020Z,50.31
2019-03-05T12:51:28.457Z,57.26
2019-03-05T12:53:57.865Z,63.79
2019-03-05T12:56:27.236Z,67.46
2019-03-05T12:58:56.635Z,68.60
2019-03-05T13:01:26.073Z,71.56
2019-03-05T13:03:55.408Z,71.00
2019-03-05T13:06:24.782Z,70.53
2019-03-05T13:08:54.187Z,70.70
2019-03-05T13:11:23.563Z,71.84
2019-03-05T13:14:05.726Z,71.95
2019-03-05T13:16:24.108Z,72.10
2019-03-05T13:18:53.518Z,71.47
2019-03-05T13:21:22.888Z,70.80
2019-03-05T13:23:52.228Z,71.13
2019-03-05T13:26:21.590Z,71.01
2019-03-05T13:28:50.993Z,69.54
2019-03-05T13:31:20.428Z,69.52
2019-03-05T13:33:49.758Z,68.91
2019-03-05T13:36:19.125Z,66.91
2019-03-05T13:38:48.450Z,66.91
2019-03-05T13:41:17.814Z,66.21
2019-03-05T13:43:47.145Z,65.23
2019-03-05T13:46:16.506Z,64.61
2019-03-05T13:49:00.777Z,64.47
2019-03-05T13:51:46.658Z,63.24
2019-03-05T13:54:48.579Z,63.04
2019-03-05T13:57:34.503Z,62.64
2019-03-05T14:00:07.328Z,62.13
2019-03-05T14:02:56.360Z,61.89
2019-03-05T14:05:46.609Z,60.97
2019-03-05T14:08:36.138Z,60.53
2019-03-05T14:11:05.475Z,60.06
2019-03-05T14:13:35.472Z,58.72
2019-03-05T14:16:07.305Z,58.76
2019-03-05T14:18:36.642Z,58.97
2019-03-05T14:21:06.498Z,57.81
2019-03-05T14:23:35.846Z,58.42
2019-03-05T14:26:05.277Z,57.81
2019-03-05T14:28:34.676Z,57.65
2019-03-05T14:31:04.492Z,56.57
2019-03-05T14:33:34.490Z,57.05
2019-03-05T14:36:04.506Z,56.82
2019-03-05T14:38:33.887Z,57.07
2019-03-05T14:41:03.307Z,57.56
2019-03-05T14:43:32.826Z,57.35
2019-03-05T14:46:02.760Z,57.24
2019-03-05T14:48:32.107Z,57.28
2019-03-05T14:51:01.524Z,56.33
2019-03-05T14:53:30.998Z,56.04
2019-03-05T14:56:00.373Z,56.30
2019-03-05T14:58:29.828Z,55.99
2019-03-05T15:00:59.261Z,55.70
2019-03-05T15:03:28.554Z,55.80
2019-03-05T15:05:58.016Z,54.94
2019-03-05T15:08:27.411Z,54.74
2019-03-05T15:10:56.878Z,54.08
2019-03-05T15:13:26.186Z,53.31
2019-03-05T15:15:55.655Z,54.30
2019-03-05T15:18:25.034Z,53.94
2019-03-05T15:20:54.399Z,53.80
2019-03-05T15:23:23.718Z,53.80
2019-03-05T15:25:53.104Z,53.90
2019-03-05T15:28:22.478Z,52.92
2019-03-05T15:30:51.922Z,51.59
2019-03-05T15:33:21.277Z,51.99
2019-03-05T15:35:50.832Z,52.20
2019-03-05T15:38:20.180Z,52.12
2019-03-05T15:40:49.533Z,52.82
2019-03-05T15:43:18.936Z,53.38
2019-03-05T15:45:48.331Z,54.39
2019-03-05T15:48:17.659Z,54.87
2019-03-05T15:50:47.234Z,55.43
2019-03-05T15:53:16.619Z,55.73
2019-03-05T15:55:45.963Z,55.99
2019-03-05T15:58:15.322Z,56.34
2019-03-05T16:00:44.730Z,56.52
2019-03-05T16:03:14.090Z,57.37
2019-03-05T16:05:43.426Z,57.58
2019-03-05T16:08:12.789Z,57.63
2019-03-05T16:10:42.303Z,57.82
2019-03-05T16:13:15.379Z,58.07
2019-03-05T16:15:45.467Z,58.28
2019-03-05T16:18:13.752Z,58.49
2019-03-05T16:20:43.163Z,58.96
2019-03-05T16:23:12.523Z,62.70
2019-03-05T16:25:42.302Z,69.54
2019-03-05T16:28:11.670Z,70.01
2019-03-05T16:30:45.718Z,70.02
2019-03-05T16:33:19.121Z,70.42
2019-03-05T16:35:53.465Z,69.57
2019-03-05T16:38:27.318Z,69.18
2019-03-05T16:41:06.178Z,69.13
2019-03-05T16:43:37.311Z,69.87
2019-03-05T16:46:14.608Z,70.82
2019-03-05T16:48:45.675Z,71.87
2019-03-05T16:51:16.648Z,72.16
2019-03-05T16:53:47.658Z,72.27
2019-03-05T16:56:24.514Z,71.61
2019-03-05T16:59:07.655Z,72.27
2019-03-05T17:01:44.639Z,73.26
2019-03-05T17:04:21.420Z,74.38
2019-03-05T17:07:10.270Z,75.08
2019-03-05T17:09:41.931Z,75.96
2019-03-05T17:12:11.267Z,76.42
2019-03-05T17:14:40.631Z,76.83
2019-03-05T17:17:09.957Z,76.98
2019-03-05T17:19:39.388Z,77.19
2019-03-05T17:22:08.723Z,77.19
2019-03-05T17:24:38.091Z,77.24
2019-03-05T17:27:07.430Z,77.32
2019-03-05T17:29:36.794Z,77.47
2019-03-05T17:32:06.511Z,77.12
2019-03-05T17:34:35.880Z,76.95
2019-03-05T17:37:05.270Z,76.72
2019-03-05T17:39:34.636Z,76.65
2019-03-05T17:42:03.976Z,76.82
2019-03-05T17:44:34.902Z,76.67
2019-03-05T17:47:04.290Z,76.68
2019-03-05T17:49:33.675Z,76.51
2019-03-05T17:52:03.021Z,76.43
2019-03-05T17:54:32.685Z,76.03
2019-03-05T17:57:02.081Z,75.78
2019-03-05T17:59:31.887Z,76.12
2019-03-05T18:02:01.261Z,75.85
2019-03-05T18:04:30.595Z,76.01
2019-03-05T18:07:00.403Z,75.88
2019-03-05T18:09:29.734Z,75.88
2019-03-05T18:11:59.168Z,75.74
2019-03-05T18:14:28.508Z,76.01
2019-03-05T18:16:57.869Z,75.93
2019-03-05T18:19:27.392Z,76.19
2019-03-05T18:21:56.756Z,76.28
2019-03-05T18:24:26.153Z,76.43
2019-03-05T18:26:55.518Z,76.48
2019-03-05T18:29:24.920Z,76.28
2019-03-05T18:31:54.357Z,76.72
2019-03-05T18:34:23.789Z,76.86
2019-03-05T18:36:53.217Z,76.63
2019-03-05T18:39:24.065Z,76.57
2019-03-05T18:41:53.423Z,76.37
2019-03-05T18:44:22.757Z,76.46
2019-03-05T18:46:52.113Z,76.49
2019-03-05T18:49:21.450Z,76.49
2019-03-05T18:51:50.814Z,76.54
2019-03-05T18:54:20.327Z,76.40
2019-03-05T18:56:49.709Z,76.47
2019-03-05T18:59:19.037Z,76.42
2019-03-05T19:01:48.474Z,76.25
2019-03-05T19:04:17.875Z,76.00
2019-03-05T19:06:47.440Z,76.00
2019-03-05T19:09:16.771Z,76.06
2019-03-05T19:11:46.129Z,75.90
2019-03-05T19:14:15.495Z,76.28
2019-03-05T19:16:44.868Z,76.47
2019-03-05T19:19:14.302Z,76.27
2019-03-05T19:21:43.630Z,76.26
2019-03-05T19:24:13.037Z,76.44
2019-03-05T19:26:42.408Z,76.48
2019-03-05T19:29:11.844Z,76.95
2019-03-05T19:31:41.183Z,77.49
2019-03-05T19:34:10.629Z,78.01
2019-03-05T19:36:39.966Z,78.39
2019-03-05T19:39:09.338Z,78.83
2019-03-05T19:41:38.747Z,79.04
2019-03-05T19:44:08.113Z,79.40
2019-03-05T19:46:37.447Z,79.30
2019-03-05T19:49:07.305Z,79.14
2019-03-05T19:51:37.912Z,79.47
2019-03-05T19:54:09.451Z,79.53
2019-03-05T19:56:38.521Z,79.62
2019-03-05T19:59:07.958Z,80.26
2019-03-05T20:01:37.671Z,80.94
2019-03-05T20:04:11.584Z,81.21
2019-03-05T20:06:41.491Z,81.68
2019-03-05T20:09:10.857Z,82.15
2019-03-05T20:11:40.264Z,82.49
2019-03-05T20:14:09.896Z,82.53
2019-03-05T20:16:39.417Z,82.75
2019-03-05T20:19:08.789Z,82.98
2019-03-05T20:21:38.199Z,83.09
2019-03-05T20:24:07.579Z,82.94
2019-03-05T20:26:36.916Z,83.21
2019-03-05T20:29:06.291Z,83.19
2019-03-05T20:31:35.645Z,83.28
2019-03-05T20:34:05.114Z,83.35
2019-03-05T20:36:34.483Z,83.51
2019-03-05T20:39:04.695Z,83.28
2019-03-05T20:41:34.427Z,83.36
2019-03-05T20:44:03.840Z,83.48
2019-03-05T20:46:33.204Z,83.48
2019-03-05T20:49:02.544Z,83.76
2019-03-05T20:51:31.981Z,83.87
2019-03-05T20:54:01.395Z,83.83
2019-03-05T20:56:30.761Z,83.93
2019-03-05T20:59:00.102Z,83.85
2019-03-05T21:01:29.468Z,83.72
2019-03-05T21:03:58.813Z,83.50
2019-03-05T21:06:28.253Z,83.27
2019-03-05T21:08:57.599Z,83.07
2019-03-05T21:11:27.041Z,82.85
2019-03-05T21:13:56.380Z,82.73
2019-03-05T21:16:25.819Z,82.78
2019-03-05T21:18:55.231Z,82.96
2019-03-05T21:21:24.672Z,83.09
2019-03-05T21:23:54.095Z,83.19
2019-03-05T21:26:23.467Z,83.06
2019-03-05T21:28:53.086Z,83.13
2019-03-05T21:31:22.528Z,83.04
2019-03-05T21:33:52.054Z,82.88
2019-03-05T21:36:21.456Z,82.82
2019-03-05T21:38:50.818Z,82.82
2019-03-05T21:41:20.324Z,82.75
2019-03-05T21:43:49.942Z,82.55
2019-03-05T21:46:19.375Z,82.44
2019-03-05T21:48:48.884Z,82.17
2019-03-05T21:51:18.256Z,81.85
2019-03-05T21:53:47.674Z,81.97
2019-03-05T21:56:17.116Z,81.97
2019-03-05T21:58:46.522Z,82.04
2019-03-05T22:01:15.960Z,82.15
2019-03-05T22:03:45.368Z,82.21
2019-03-05T22:06:14.742Z,82.17
2019-03-05T22:08:44.078Z,81.93
2019-03-05T22:11:13.451Z,81.98
2019-03-05T22:13:42.787Z,81.90
2019-03-05T22:16:12.326Z,82.04
2019-03-05T22:18:41.735Z,82.03
2019-03-05T22:21:11.176Z,82.03
2019-03-05T22:23:40.583Z,82.06
2019-03-05T22:26:10.019Z,82.12
2019-03-05T22:28:39.532Z,82.16
2019-03-05T22:31:08.905Z,82.07
2019-03-05T22:33:38.307Z,82.11
2019-03-05T22:36:07.644Z,81.99
2019-03-05T22:38:37.338Z,81.79
2019-03-05T22:41:06.741Z,81.75
2019-03-05T22:43:36.109Z,81.58
2019-03-05T22:46:05.521Z,81.66
2019-03-05T22:48:34.887Z,81.54
2019-03-05T22:51:04.228Z,81.53
2019-03-05T22:53:33.644Z,81.45
2019-03-05T22:56:02.988Z,81.54
2019-03-05T22:58:32.621Z,81.52
2019-03-05T23:01:06.576Z,81.48
2019-03-05T23:03:36.231Z,81.47
2019-03-05T23:06:09.199Z,81.51
2019-03-05T23:08:38.560Z,81.48
2019-03-05T23:11:08.187Z,81.54
2019-03-05T23:13:37.544Z,81.56
2019-03-05T23:16:06.947Z,81.66
2019-03-05T23:18:36.319Z,81.87
2019-03-05T23:21:05.670Z,81.93
2019-03-05T23:23:35.034Z,82.03
2019-03-05T23:26:04.438Z,82.26
2019-03-05T23:28:34.409Z,82.10
2019-03-05T23:31:03.751Z,82.06
2019-03-05T23:33:33.122Z,82.23
2019-03-05T23:36:02.455Z,82.17
2019-03-05T23:38:32.165Z,82.10
2019-03-05T23:41:01.531Z,82.29
2019-03-05T23:43:30.972Z,82.40
2019-03-05T23:46:00.379Z,82.41
2019-03-05T23:48:29.805Z,82.46
2019-03-05T23:50:59.395Z,82.64
2019-03-05T23:53:29.030Z,82.57
2019-03-05T23:55:58.434Z,82.65
2019-03-05T23:58:27.866Z,82.78
